createdAt,value
2022-09-02T00:01:12.946Z,2.70
2022-09-02T00:03:39.834Z,2.80
2022-09-02T00:06:06.588Z,2.80
2022-09-02T00:08:33.561Z,2.87
2022-09-02T00:11:07.239Z,2.67
2022-09-02T00:13:36.350Z,2.40
2022-09-02T00:16:05.122Z,2.70
2022-09-02T00:18:33.487Z,3.20
2022-09-02T00:21:00.355Z,2.80
2022-09-02T00:23:27.898Z,3.13
2022-09-02T00:25:54.615Z,2.50
2022-09-02T00:28:21.678Z,2.80
2022-09-02T00:30:48.535Z,2.65
2022-09-02T00:33:15.746Z,2.90
2022-09-02T00:35:42.844Z,3.10
2022-09-02T00:38:09.882Z,3.35
2022-09-02T00:40:37.671Z,3.00
2022-09-02T00:43:08.416Z,3.00
2022-09-02T00:45:36.629Z,2.90
2022-09-02T00:48:04.342Z,3.08
2022-09-02T00:50:35.465Z,2.78
2022-09-02T00:53:11.498Z,2.85
2022-09-02T00:55:48.698Z,2.83
2022-09-02T00:58:20.927Z,2.70
2022-09-02T01:00:49.334Z,2.80
2022-09-02T01:03:19.970Z,2.90
2022-09-02T01:05:49.557Z,2.97
2022-09-02T01:08:19.920Z,2.78
2022-09-02T01:10:50.154Z,3.33
2022-09-02T01:13:19.996Z,3.15
2022-09-02T01:15:54.232Z,2.78
2022-09-02T01:18:26.101Z,3.35
2022-09-02T01:20:52.951Z,2.75
2022-09-02T01:23:20.259Z,2.83
2022-09-02T01:25:49.637Z,3.20
2022-09-02T01:28:19.481Z,3.30
2022-09-02T01:30:50.804Z,2.85
2022-09-02T01:33:19.245Z,2.80
2022-09-02T01:35:49.179Z,3.03
2022-09-02T01:38:16.052Z,2.90
2022-09-02T01:40:43.259Z,3.40
2022-09-02T01:43:14.109Z,3.17
2022-09-02T01:45:43.188Z,2.80
2022-09-02T01:48:10.029Z,3.07
2022-09-02T01:50:42.604Z,3.03
2022-09-02T01:53:13.845Z,3.00
2022-09-02T01:55:41.943Z,3.25
2022-09-02T01:58:09.033Z,3.22
2022-09-02T02:00:35.749Z,3.00
2022-09-02T02:03:03.065Z,3.00
2022-09-02T02:05:32.056Z,2.80
2022-09-02T02:07:59.025Z,3.35
2022-09-02T02:10:25.825Z,2.90
2022-09-02T02:12:52.819Z,3.20
2022-09-02T02:15:20.569Z,3.20
2022-09-02T02:17:47.798Z,3.10
2022-09-02T02:20:18.108Z,2.80
2022-09-02T02:22:46.127Z,3.50
2022-09-02T02:25:15.136Z,3.30
2022-09-02T02:27:43.806Z,3.38
2022-09-02T02:30:12.189Z,3.10
2022-09-02T02:32:39.067Z,2.95
2022-09-02T02:35:06.818Z,3.40
2022-09-02T02:37:33.889Z,3.33
2022-09-02T02:40:00.770Z,3.72
2022-09-02T02:42:27.534Z,3.70
2022-09-02T02:44:54.359Z,3.10
2022-09-02T02:47:21.241Z,3.72
2022-09-02T02:49:47.897Z,3.50
2022-09-02T02:52:14.919Z,3.72
2022-09-02T02:54:42.389Z,3.40
2022-09-02T02:57:10.178Z,4.47
2022-09-02T02:59:37.075Z,3.53
2022-09-02T03:02:05.992Z,3.70
2022-09-02T03:04:33.998Z,4.50
2022-09-02T03:07:00.964Z,4.25
2022-09-02T03:09:27.584Z,3.50
2022-09-02T03:11:54.355Z,3.70
2022-09-02T03:14:21.316Z,3.80
2022-09-02T03:16:47.985Z,3.53
2022-09-02T03:19:14.688Z,3.75
2022-09-02T03:21:42.456Z,3.58
2022-09-02T03:24:11.803Z,4.22
2022-09-02T03:26:40.518Z,4.20
2022-09-02T03:29:07.500Z,3.97
2022-09-02T03:31:34.916Z,3.83
2022-09-02T03:34:02.138Z,4.10
2022-09-02T03:36:35.748Z,4.15
2022-09-02T03:39:09.910Z,3.87
2022-09-02T03:41:39.124Z,3.78
2022-09-02T03:44:08.326Z,4.07
2022-09-02T03:46:35.407Z,4.50
2022-09-02T03:49:02.774Z,5.10
2022-09-02T03:51:30.305Z,4.40
2022-09-02T03:53:57.132Z,4.18
2022-09-02T03:56:24.582Z,4.72
2022-09-02T03:58:52.848Z,3.95
2022-09-02T04:01:23.836Z,4.75
2022-09-02T04:03:51.077Z,4.53
2022-09-02T04:06:20.640Z,4.25
2022-09-02T04:08:48.210Z,4.60
2022-09-02T04:11:19.843Z,4.63
2022-09-02T04:13:49.132Z,4.82
2022-09-02T04:16:19.592Z,4.30
2022-09-02T04:18:49.358Z,4.70
2022-09-02T04:21:17.172Z,4.95
2022-09-02T04:23:44.063Z,5.57
2022-09-02T04:26:19.910Z,5.97
2022-09-02T04:28:48.360Z,5.90
2022-09-02T04:31:16.845Z,5.38
2022-09-02T04:33:44.036Z,5.70
2022-09-02T04:36:15.297Z,5.70
2022-09-02T04:38:44.170Z,6.20
2022-09-02T04:41:14.660Z,6.13
2022-09-02T04:43:42.245Z,6.85
2022-09-02T04:46:13.745Z,7.38
2022-09-02T04:48:43.580Z,5.93
2022-09-02T04:51:13.252Z,6.65
2022-09-02T04:53:41.402Z,6.97
2022-09-02T04:56:12.067Z,8.32
2022-09-02T04:58:42.202Z,7.78
2022-09-02T05:01:15.837Z,7.30
2022-09-02T05:03:44.988Z,7.72
2022-09-02T05:06:14.170Z,7.53
2022-09-02T05:08:44.379Z,7.30
2022-09-02T05:11:20.503Z,6.90
2022-09-02T05:13:51.602Z,7.90
2022-09-02T05:16:21.029Z,7.78
2022-09-02T05:18:48.092Z,7.30
2022-09-02T05:21:14.871Z,7.75
2022-09-02T05:23:41.675Z,7.70
2022-09-02T05:26:10.668Z,8.05
2022-09-02T05:28:38.679Z,8.10
2022-09-02T05:31:08.062Z,8.97
2022-09-02T05:33:38.680Z,7.70
2022-09-02T05:36:05.837Z,9.07
2022-09-02T05:38:32.446Z,8.35
2022-09-02T05:41:08.243Z,8.13
2022-09-02T05:43:39.047Z,7.87
2022-09-02T05:46:08.312Z,8.90
2022-09-02T05:48:55.325Z,8.32
2022-09-02T05:51:23.001Z,9.63
2022-09-02T05:53:55.590Z,9.40
2022-09-02T05:56:24.925Z,9.20
2022-09-02T05:58:52.023Z,9.50
2022-09-02T06:01:19.933Z,9.10
2022-09-02T06:03:47.357Z,10.20
2022-09-02T06:06:14.572Z,9.75
2022-09-02T06:11:22.238Z,9.15
2022-09-02T06:13:49.481Z,9.63
2022-09-02T06:16:24.406Z,8.75
2022-09-02T06:18:59.535Z,9.85
2022-09-02T06:21:27.012Z,10.70
2022-09-02T06:23:53.671Z,10.30
2022-09-02T06:26:22.813Z,10.10
2022-09-02T06:28:59.410Z,10.10
2022-09-02T06:31:36.340Z,10.48
2022-09-02T06:34:06.236Z,10.60
2022-09-02T06:36:39.447Z,10.65
2022-09-02T06:39:06.549Z,9.88
2022-09-02T06:41:41.331Z,9.93
2022-09-02T06:44:15.193Z,10.32
2022-09-02T06:46:54.473Z,8.87
2022-09-02T06:49:22.380Z,10.27
2022-09-02T06:51:51.210Z,9.18
2022-09-02T06:54:37.806Z,9.32
2022-09-02T06:57:09.076Z,10.10
2022-09-02T06:59:45.619Z,9.23
2022-09-02T07:05:05.397Z,9.55
2022-09-02T07:07:32.012Z,9.35
2022-09-02T07:10:02.166Z,9.20
2022-09-02T07:12:37.749Z,8.23
2022-09-02T07:15:17.582Z,7.82
2022-09-02T07:17:53.789Z,8.52
2022-09-02T07:20:26.502Z,8.68
2022-09-02T07:22:53.136Z,8.93
2022-09-02T07:25:21.058Z,9.17
2022-09-02T07:27:47.796Z,8.30
2022-09-02T07:30:15.181Z,7.80
2022-09-02T07:32:41.906Z,8.10
2022-09-02T07:35:11.133Z,8.48
2022-09-02T07:37:38.557Z,7.87
2022-09-02T07:40:08.167Z,8.18
2022-09-02T07:42:34.918Z,8.80
2022-09-02T07:45:01.682Z,7.75
2022-09-02T07:47:31.217Z,8.93
2022-09-02T07:52:55.643Z,8.48
2022-09-02T07:55:26.670Z,8.20
2022-09-02T07:57:55.554Z,8.25
2022-09-02T08:00:23.196Z,8.68
2022-09-02T08:02:52.623Z,8.43
2022-09-02T08:05:25.398Z,9.10
2022-09-02T08:07:52.235Z,8.40
2022-09-02T08:10:20.723Z,9.10
2022-09-02T08:12:47.857Z,7.93
2022-09-02T08:15:20.507Z,8.73
2022-09-02T08:17:48.862Z,8.30
2022-09-02T08:20:17.509Z,9.00
2022-09-02T08:22:46.726Z,8.68
2022-09-02T08:25:19.150Z,8.60
2022-09-02T08:27:46.293Z,9.20
2022-09-02T08:30:15.020Z,8.35
2022-09-02T08:32:43.971Z,8.13
2022-09-02T08:35:10.987Z,8.68
2022-09-02T08:37:39.169Z,8.98
2022-09-02T08:40:13.466Z,8.20
2022-09-02T08:42:51.915Z,9.05
2022-09-02T08:45:35.711Z,8.10
2022-09-02T08:48:21.397Z,8.07
2022-09-02T08:50:52.838Z,7.60
2022-09-02T08:53:36.973Z,7.00
2022-09-02T08:56:08.532Z,7.20
2022-09-02T08:58:44.255Z,7.53
2022-09-02T09:01:49.734Z,6.88
2022-09-02T09:04:24.813Z,5.90
2022-09-02T09:07:09.930Z,7.35
2022-09-02T09:09:59.968Z,6.10
2022-09-02T09:12:35.654Z,5.55
2022-09-02T09:15:10.971Z,7.40
2022-09-02T09:17:59.450Z,6.55
2022-09-02T09:20:35.831Z,7.15
2022-09-02T09:23:21.869Z,7.30
2022-09-02T09:25:52.477Z,7.50
2022-09-02T09:28:19.032Z,6.82
2022-09-02T09:30:45.627Z,6.47
2022-09-02T09:33:16.770Z,5.82
2022-09-02T09:35:54.785Z,6.47
2022-09-02T09:38:33.559Z,6.00
2022-09-02T09:41:21.826Z,6.15
2022-09-02T09:43:48.461Z,6.13
2022-09-02T09:46:27.547Z,5.65
2022-09-02T09:48:55.090Z,6.27
2022-09-02T09:51:21.704Z,5.85
2022-09-02T09:53:48.415Z,5.80
2022-09-02T09:56:15.653Z,4.80
2022-09-02T09:58:42.147Z,5.50
2022-09-02T10:01:12.636Z,4.63
2022-09-02T10:03:55.711Z,4.93
2022-09-02T10:06:24.134Z,5.45
2022-09-02T10:08:59.355Z,4.85
2022-09-02T10:11:34.714Z,5.68
2022-09-02T10:14:03.043Z,5.00
2022-09-02T10:16:56.364Z,4.97
2022-09-02T10:19:59.699Z,4.60
2022-09-02T10:22:48.568Z,4.22
2022-09-02T10:25:47.537Z,4.15
2022-09-02T10:28:28.987Z,4.30
2022-09-02T10:31:32.372Z,4.07
2022-09-02T10:34:22.609Z,4.85
2022-09-02T10:37:18.942Z,5.10
2022-09-02T10:40:14.156Z,4.38
2022-09-02T10:43:06.397Z,5.10
2022-09-02T10:45:46.206Z,4.80
2022-09-02T10:48:35.092Z,4.55
2022-09-02T10:51:01.656Z,4.18
2022-09-02T10:53:42.551Z,3.92
2022-09-02T10:56:16.015Z,4.57
2022-09-02T11:01:29.643Z,4.03
2022-09-02T11:04:25.276Z,4.65
2022-09-02T11:07:04.582Z,5.90
2022-09-02T11:09:39.678Z,6.17
2022-09-02T11:12:23.657Z,5.30
2022-09-02T11:15:17.442Z,5.10
2022-09-02T11:17:57.302Z,4.45
2022-09-02T11:20:26.930Z,4.43
2022-09-02T11:23:00.518Z,4.30
2022-09-02T11:25:37.404Z,4.53
2022-09-02T11:28:29.143Z,5.47
2022-09-02T11:31:07.445Z,5.22
2022-09-02T11:33:55.667Z,5.00
2022-09-02T11:36:22.716Z,4.10
2022-09-02T11:39:00.308Z,3.78
2022-09-02T11:41:37.469Z,3.55
2022-09-02T11:44:35.162Z,3.13
2022-09-02T11:47:20.396Z,3.40
2022-09-02T11:50:11.705Z,3.60
2022-09-02T11:52:44.273Z,4.25
2022-09-02T11:55:20.511Z,3.20
2022-09-02T11:57:55.058Z,3.70
2022-09-02T12:00:36.758Z,3.05
2022-09-02T12:03:16.655Z,3.47
2022-09-02T12:06:11.417Z,3.22
2022-09-02T12:08:42.095Z,3.45
2022-09-02T12:11:12.207Z,2.80
2022-09-02T12:13:41.970Z,3.20
2022-09-02T12:16:19.569Z,3.70
2022-09-02T12:19:10.755Z,2.88
2022-09-02T12:22:17.854Z,3.10
2022-09-02T12:24:56.754Z,3.00
2022-09-02T12:27:27.424Z,2.90
2022-09-02T12:29:55.658Z,2.73
2022-09-02T12:32:47.169Z,2.92
2022-09-02T12:35:32.763Z,2.67
2022-09-02T12:38:11.608Z,2.80
2022-09-02T12:40:58.650Z,2.65
2022-09-02T12:43:30.195Z,2.40
2022-09-02T12:46:06.792Z,2.80
2022-09-02T12:48:46.370Z,2.90
2022-09-02T12:51:51.403Z,2.80
2022-09-02T12:54:18.411Z,3.28
2022-09-02T12:56:50.556Z,3.10
2022-09-02T12:59:29.693Z,3.10
2022-09-02T13:02:21.511Z,2.90
2022-09-02T13:05:07.174Z,3.13
2022-09-02T13:07:39.947Z,3.13
2022-09-02T13:10:51.548Z,3.37
2022-09-02T13:13:55.618Z,3.30
2022-09-02T13:16:43.946Z,2.88
2022-09-02T13:19:41.600Z,3.53
2022-09-02T13:22:38.991Z,3.40
2022-09-02T13:25:29.093Z,2.60
2022-09-02T13:28:34.158Z,3.10
2022-09-02T13:31:27.639Z,3.03
2022-09-02T13:34:05.633Z,2.90
2022-09-02T13:36:38.353Z,3.65
2022-09-02T13:39:40.850Z,2.60
2022-09-02T13:42:23.453Z,3.15
2022-09-02T13:44:51.517Z,2.80
2022-09-02T13:47:24.383Z,2.67
2022-09-02T13:49:53.914Z,2.72
2022-09-02T13:52:51.146Z,3.77
2022-09-02T13:55:14.073Z,3.05
2022-09-02T13:57:46.073Z,2.50
2022-09-02T14:00:26.234Z,2.92
2022-09-02T14:03:02.101Z,3.30
2022-09-02T14:05:30.886Z,2.67
2022-09-02T14:08:00.129Z,2.83
2022-09-02T14:10:28.321Z,3.03
2022-09-02T14:12:56.593Z,2.83
2022-09-02T14:15:26.436Z,2.80
2022-09-02T14:18:08.530Z,2.80
2022-09-02T14:20:36.901Z,2.63
2022-09-02T14:23:03.730Z,2.45
2022-09-02T14:25:38.120Z,2.20
2022-09-02T14:28:18.440Z,2.28
2022-09-02T14:30:59.936Z,2.72
2022-09-02T14:33:40.297Z,2.40
2022-09-02T14:36:08.798Z,2.67
2022-09-02T14:38:50.150Z,2.27
2022-09-02T14:41:16.638Z,2.35
2022-09-02T14:43:56.994Z,2.42
2022-09-02T14:46:57.622Z,2.67
2022-09-02T14:49:35.302Z,2.63
2022-09-02T14:52:05.857Z,2.43
2022-09-02T14:54:42.328Z,2.67
2022-09-02T14:57:33.118Z,2.25
2022-09-02T15:00:11.177Z,2.10
2022-09-02T15:02:44.734Z,2.33
2022-09-02T15:05:16.615Z,2.40
2022-09-02T15:07:43.373Z,2.40
2022-09-02T15:10:10.285Z,2.38
2022-09-02T15:12:49.245Z,2.45
2022-09-02T15:15:16.120Z,2.22
2022-09-02T15:17:42.623Z,2.38
2022-09-02T15:20:11.035Z,2.30
2022-09-02T15:22:38.609Z,2.33
2022-09-02T15:25:10.395Z,2.47
2022-09-02T15:27:37.348Z,2.10
2022-09-02T15:30:09.316Z,2.92
2022-09-02T15:32:36.982Z,2.00
2022-09-02T15:35:04.491Z,2.30
2022-09-02T15:37:31.013Z,2.20
2022-09-02T15:39:57.650Z,2.13
2022-09-02T15:42:24.266Z,2.40
2022-09-02T15:44:50.761Z,2.33
2022-09-02T15:47:17.806Z,2.30
2022-09-02T15:49:44.350Z,2.40
2022-09-02T15:52:11.269Z,2.40
2022-09-02T15:54:37.824Z,2.15
2022-09-02T15:57:04.566Z,2.20
2022-09-02T15:59:31.078Z,2.95
2022-09-02T16:02:00.824Z,2.45
2022-09-02T16:04:27.534Z,2.70
2022-09-02T16:06:54.484Z,2.63
2022-09-02T16:09:21.245Z,2.43
2022-09-02T16:11:53.695Z,2.60
2022-09-02T16:14:22.224Z,2.55
2022-09-02T16:16:50.779Z,3.03
2022-09-02T16:19:20.869Z,2.75
2022-09-02T16:21:48.750Z,2.80
2022-09-02T16:24:20.063Z,2.17
2022-09-02T16:26:46.618Z,2.45
2022-09-02T16:29:14.882Z,2.40
2022-09-02T16:31:43.557Z,2.47
2022-09-02T16:34:15.141Z,2.30
2022-09-02T16:36:44.690Z,2.28
2022-09-02T16:39:13.074Z,2.65
2022-09-02T16:41:48.138Z,2.65
2022-09-02T16:44:17.555Z,2.50
2022-09-02T16:46:46.112Z,2.20
2022-09-02T16:49:18.463Z,2.55
2022-09-02T16:51:49.304Z,1.95
2022-09-02T16:54:17.528Z,2.20
2022-09-02T16:56:48.426Z,2.55
2022-09-02T16:59:15.025Z,2.07
2022-09-02T17:01:41.748Z,2.50
2022-09-02T17:04:09.009Z,2.20
2022-09-02T17:06:39.943Z,2.33
2022-09-02T17:09:09.030Z,2.45
2022-09-02T17:11:39.785Z,2.40
2022-09-02T17:14:10.827Z,3.67
2022-09-02T17:16:40.414Z,2.53
2022-09-02T17:19:07.998Z,3.00
2022-09-02T17:21:39.840Z,2.60
2022-09-02T17:24:07.722Z,2.60
2022-09-02T17:26:36.838Z,5.78
2022-09-02T17:29:21.217Z,2.45
2022-09-02T17:31:57.931Z,2.45
2022-09-02T17:34:26.012Z,2.80
2022-09-02T17:36:53.215Z,2.37
2022-09-02T17:39:19.974Z,2.75
2022-09-02T17:41:57.641Z,2.50
2022-09-02T17:44:33.419Z,2.50
2022-09-02T17:47:00.079Z,3.05
2022-09-02T17:49:26.683Z,4.30
2022-09-02T17:51:53.211Z,2.63
2022-09-02T17:54:19.846Z,2.50
2022-09-02T17:57:17.391Z,2.50
2022-09-02T18:00:05.761Z,2.50
2022-09-02T18:02:55.445Z,2.83
2022-09-02T18:05:56.520Z,2.40
2022-09-02T18:08:54.654Z,2.58
2022-09-02T18:11:22.661Z,2.63
2022-09-02T18:14:10.832Z,2.42
2022-09-02T18:16:54.479Z,2.40
2022-09-02T18:19:40.658Z,2.60
2022-09-02T18:22:35.904Z,2.20
2022-09-02T18:25:21.363Z,2.30
2022-09-02T18:28:34.020Z,2.10
2022-09-02T18:31:30.949Z,2.63
2022-09-02T18:34:19.711Z,2.08
2022-09-02T18:36:56.922Z,2.37
2022-09-02T18:39:44.684Z,2.50
2022-09-02T18:42:26.058Z,2.97
2022-09-02T18:45:30.871Z,2.90
2022-09-02T18:48:11.988Z,2.40
2022-09-02T18:50:53.727Z,2.50
2022-09-02T18:53:29.025Z,2.40
2022-09-02T18:55:59.267Z,2.60
2022-09-02T18:58:37.163Z,2.70
2022-09-02T19:01:14.425Z,2.70
2022-09-02T19:03:41.242Z,2.30
2022-09-02T19:06:16.008Z,2.75
2022-09-02T19:08:45.602Z,2.45
2022-09-02T19:11:17.983Z,2.58
2022-09-02T19:13:49.930Z,2.47
2022-09-02T19:16:28.593Z,2.30
2022-09-02T19:18:55.331Z,2.42
2022-09-02T19:21:41.126Z,2.50
2022-09-02T19:24:12.782Z,2.65
2022-09-02T19:26:43.090Z,2.47
2022-09-02T19:29:13.225Z,2.63
2022-09-02T19:31:42.223Z,2.50
2022-09-02T19:34:10.718Z,2.55
2022-09-02T19:36:41.288Z,2.70
2022-09-02T19:39:08.346Z,3.00
2022-09-02T19:41:35.058Z,2.53
2022-09-02T19:44:02.246Z,2.10
2022-09-02T19:47:06.935Z,2.30
2022-09-02T19:49:16.890Z,2.60
2022-09-02T19:51:43.977Z,2.67
2022-09-02T19:54:13.314Z,2.63
2022-09-02T19:56:40.525Z,2.75
2022-09-02T19:59:07.731Z,3.30
2022-09-02T20:01:35.475Z,2.85
2022-09-02T20:04:02.204Z,2.72
2022-09-02T20:06:28.795Z,2.80
2022-09-02T20:08:57.123Z,2.97
2022-09-02T20:11:23.784Z,2.83
2022-09-02T20:13:50.476Z,3.15
2022-09-02T20:16:20.320Z,3.10
2022-09-02T20:18:50.126Z,3.10
2022-09-02T20:21:24.027Z,2.72
2022-09-02T20:23:54.064Z,2.80
2022-09-02T20:26:49.876Z,2.90
2022-09-02T20:29:26.064Z,2.63
2022-09-02T20:32:03.103Z,3.00
2022-09-02T20:34:44.584Z,2.40
2022-09-02T20:37:11.119Z,2.90
2022-09-02T20:40:16.460Z,2.72
2022-09-02T20:43:24.959Z,2.95
2022-09-02T20:45:58.893Z,2.73
2022-09-02T20:48:41.709Z,2.47
2022-09-02T20:51:30.937Z,2.55
2022-09-02T20:54:01.272Z,2.75
2022-09-02T20:56:58.766Z,2.88
2022-09-02T20:59:51.512Z,2.93
2022-09-02T21:02:24.450Z,2.90
2022-09-02T21:05:01.116Z,3.35
2022-09-02T21:07:34.714Z,3.20
2022-09-02T21:10:14.794Z,3.08
2022-09-02T21:12:59.358Z,2.77
2022-09-02T21:15:32.650Z,3.20
2022-09-02T21:18:14.057Z,2.75
2022-09-02T21:20:45.678Z,2.92
2022-09-02T21:23:30.485Z,3.53
2022-09-02T21:26:04.173Z,2.90
2022-09-02T21:28:43.451Z,3.03
2022-09-02T21:31:32.755Z,3.08
2022-09-02T21:34:08.502Z,3.22
2022-09-02T21:36:38.442Z,2.85
2022-09-02T21:39:14.661Z,2.97
2022-09-02T21:41:56.506Z,3.30
2022-09-02T21:44:49.408Z,2.85
2022-09-02T21:47:28.206Z,3.55
2022-09-02T21:50:23.054Z,3.30
2022-09-02T21:53:02.952Z,3.80
2022-09-02T21:55:53.471Z,3.47
2022-09-02T21:58:54.362Z,3.70
2022-09-02T22:01:42.131Z,3.05
2022-09-02T22:04:25.035Z,3.33
2022-09-02T22:07:00.191Z,4.43
2022-09-02T22:09:31.964Z,3.25
2022-09-02T22:12:14.727Z,3.30
2022-09-02T22:14:51.346Z,2.42
2022-09-02T22:17:47.196Z,3.22
2022-09-02T22:20:18.074Z,2.50
2022-09-02T22:22:53.470Z,2.72
2022-09-02T22:25:22.959Z,2.72
2022-09-02T22:28:01.890Z,2.72
2022-09-02T22:30:31.705Z,2.30
2022-09-02T22:33:08.564Z,3.13
2022-09-02T22:35:53.788Z,2.50
2022-09-02T22:38:27.783Z,2.67
2022-09-02T22:41:27.863Z,3.03
2022-09-02T22:44:12.136Z,2.63
2022-09-02T22:47:21.370Z,2.40
2022-09-02T22:50:18.690Z,3.00
2022-09-02T22:52:55.104Z,2.35
2022-09-02T22:55:47.030Z,2.65
2022-09-02T22:58:21.116Z,2.58
2022-09-02T23:00:57.020Z,3.27
2022-09-02T23:03:43.219Z,2.70
2022-09-02T23:06:19.997Z,2.80
2022-09-02T23:08:47.051Z,2.47
2022-09-02T23:11:28.567Z,2.67
2022-09-02T23:14:27.084Z,2.93
2022-09-02T23:17:11.739Z,2.80
2022-09-02T23:19:56.608Z,2.75
2022-09-02T23:23:03.289Z,2.85
2022-09-02T23:25:37.871Z,2.92
2022-09-02T23:28:15.343Z,3.03
2022-09-02T23:30:52.440Z,2.97
2022-09-02T23:33:57.645Z,3.03
2022-09-02T23:37:03.383Z,3.25
2022-09-02T23:39:58.127Z,3.15
2022-09-02T23:42:25.659Z,2.80
2022-09-02T23:45:00.048Z,2.67
2022-09-02T23:48:11.704Z,3.45
2022-09-02T23:50:48.052Z,3.10
2022-09-02T23:53:40.512Z,3.15
2022-09-02T23:56:20.855Z,3.50
2022-09-02T23:58:57.506Z,2.88
